Time;durP1;ratioP1;P1;durP2;ratioP2;P2;SDS_P1;SDS_P2;PMS_P1;PMS_P2;Temp;Humidity;BMP_temperature;BMP_pressure;BME280_temperature;BME280_humidity;BME280_pressure;Samples;Min_cycle;Max_cycle;Signal;HPM_P1;HPM_P2
2022/09/21 00:01:32;;;;;;;12.70;9.70;;;;;;;7.35;98.54;98192.67;106085;1280;24175;-84
2022/09/21 00:04:02;;;;;;;12.10;10.70;;;;;;;7.33;98.62;98195.14;106499;1280;25352;-88
2022/09/21 00:06:32;;;;;;;10.60;9.50;;;;;;;7.27;98.43;98195.84;106345;1280;22600;-85
2022/09/21 00:09:03;;;;;;;10.70;9.00;;;;;;;7.22;98.33;98199.01;106289;1280;22572;-86
2022/09/21 00:11:34;;;;;;;13.40;9.70;;;;;;;7.18;98.21;98195.69;106503;1280;22575;-83
2022/09/21 00:14:06;;;;;;;12.20;9.50;;;;;;;7.13;97.96;98196.87;106412;1280;22689;-85
2022/09/21 00:16:35;;;;;;;13.10;9.50;;;;;;;7.09;98.30;98197.24;106526;1280;25351;-85
2022/09/21 00:19:03;;;;;;;12.70;9.30;;;;;;;7.02;98.18;98195.16;106021;1280;24290;-84
2022/09/21 00:21:33;;;;;;;11.30;9.20;;;;;;;6.93;98.27;98195.10;106590;1280;25323;-84
2022/09/21 00:24:01;;;;;;;12.30;7.40;;;;;;;6.84;98.50;98201.09;106936;1280;24262;-83
2022/09/21 00:26:30;;;;;;;10.70;7.70;;;;;;;6.80;98.97;98201.84;106235;1280;25248;-84
2022/09/21 00:29:01;;;;;;;8.00;6.40;;;;;;;6.79;99.10;98199.38;106154;1280;24275;-85
2022/09/21 00:31:31;;;;;;;10.20;7.90;;;;;;;6.81;99.64;98199.42;105934;1280;25340;-84
2022/09/21 00:34:00;;;;;;;10.50;8.60;;;;;;;6.81;99.24;98203.13;106193;1280;22560;-85
2022/09/21 00:36:28;;;;;;;10.10;7.10;;;;;;;6.83;99.29;98201.85;106299;1280;22701;-85
2022/09/21 00:39:00;;;;;;;9.30;7.50;;;;;;;6.86;99.23;98204.48;106489;1280;25393;-84
2022/09/21 00:41:31;;;;;;;9.30;7.40;;;;;;;6.84;99.26;98197.98;106393;1280;22627;-86
2022/09/21 00:44:17;;;;;;;10.20;8.40;;;;;;;6.90;99.38;98204.26;106706;1280;24253;-88
2022/09/21 00:46:48;;;;;;;9.70;7.90;;;;;;;6.93;99.39;98206.67;106401;1280;25355;-84
2022/09/21 00:49:17;;;;;;;10.10;8.50;;;;;;;6.97;99.46;98205.40;106526;1280;22557;-84
2022/09/21 00:51:47;;;;;;;10.60;9.50;;;;;;;6.99;99.49;98204.31;106260;1280;23274;-83
2022/09/21 00:54:34;;;;;;;11.90;10.70;;;;;;;7.00;99.63;98207.63;106472;1280;22587;-84
2022/09/21 00:57:02;;;;;;;14.00;12.60;;;;;;;6.99;99.81;98212.18;105990;1280;22541;-85
2022/09/21 00:59:34;;;;;;;13.30;11.90;;;;;;;7.01;99.79;98209.09;105707;1280;22697;-82
2022/09/21 01:02:03;;;;;;;13.80;12.20;;;;;;;7.04;99.84;98211.34;106049;1280;22641;-85
2022/09/21 01:04:33;;;;;;;16.00;13.90;;;;;;;7.07;99.70;98211.45;106151;1280;24036;-85
2022/09/21 01:07:04;;;;;;;15.90;14.40;;;;;;;7.08;99.65;98215.25;106142;1280;22617;-83
2022/09/21 01:09:33;;;;;;;19.80;15.20;;;;;;;7.09;99.66;98216.42;105984;1280;24097;-83
2022/09/21 01:12:23;;;;;;;16.60;15.20;;;;;;;7.08;99.84;98217.77;105823;1280;24379;-85
2022/09/21 01:15:21;;;;;;;17.90;16.10;;;;;;;7.09;99.89;98215.09;105776;1280;23231;-80
2022/09/21 01:17:58;;;;;;;17.50;15.80;;;;;;;7.11;100.00;98215.98;105883;1280;22556;-80
2022/09/21 01:20:46;;;;;;;16.80;15.30;;;;;;;7.15;100.00;98215.04;106110;1280;25285;-79
2022/09/21 01:23:38;;;;;;;19.60;17.70;;;;;;;7.16;100.00;98215.67;105783;1280;22544;-80
2022/09/21 01:26:43;;;;;;;17.60;16.00;;;;;;;7.18;100.00;98217.92;105742;1280;23103;-81
2022/09/21 01:29:30;;;;;;;17.00;15.20;;;;;;;7.19;100.00;98219.70;105935;1280;25254;-81
2022/09/21 01:32:19;;;;;;;16.20;14.70;;;;;;;7.22;100.00;98221.41;105916;1280;22601;-80
2022/09/21 01:35:01;;;;;;;17.00;15.50;;;;;;;7.27;100.00;98222.64;105820;1280;22737;-80
2022/09/21 01:37:40;;;;;;;16.00;14.50;;;;;;;7.31;100.00;98223.98;105792;1280;25366;-81
2022/09/21 01:40:16;;;;;;;16.40;14.80;;;;;;;7.35;100.00;98224.62;105799;1280;22653;-80
2022/09/21 01:42:48;;;;;;;18.40;16.60;;;;;;;7.37;100.00;98225.80;105810;1280;24311;-80
2022/09/21 01:45:25;;;;;;;20.40;18.00;;;;;;;7.39;100.00;98224.95;105531;1280;22754;-80
2022/09/21 01:47:58;;;;;;;17.80;16.20;;;;;;;7.39;100.00;98224.52;105788;1280;22568;-81
2022/09/21 01:50:35;;;;;;;17.50;15.90;;;;;;;7.42;100.00;98225.32;105617;1280;22543;-79
2022/09/21 01:53:12;;;;;;;18.90;17.20;;;;;;;7.44;100.00;98222.95;105513;1280;22547;-80
2022/09/21 01:55:45;;;;;;;18.10;16.50;;;;;;;7.46;100.00;98225.35;105898;1280;24381;-81
2022/09/21 01:58:38;;;;;;;18.10;16.60;;;;;;;7.50;100.00;98226.39;105908;1280;23737;-81
2022/09/21 02:01:10;;;;;;;18.00;16.40;;;;;;;7.53;100.00;98220.80;105796;1280;23277;-81
2022/09/21 02:03:44;;;;;;;19.10;17.50;;;;;;;7.56;100.00;98224.22;105924;1280;26617;-81
2022/09/21 02:06:13;;;;;;;17.90;16.20;;;;;;;7.57;100.00;98226.64;105785;1280;25303;-83
2022/09/21 02:08:42;;;;;;;16.10;14.60;;;;;;;7.56;100.00;98228.35;106085;1280;24288;-81
2022/09/21 02:11:12;;;;;;;17.90;16.10;;;;;;;7.58;100.00;98228.66;106169;1280;22702;-80
2022/09/21 02:13:44;;;;;;;17.10;15.70;;;;;;;7.57;100.00;98226.05;107309;1280;23937;-80
2022/09/21 02:16:28;;;;;;;14.70;13.40;;;;;;;7.59;100.00;98228.67;105890;1280;22547;-81
2022/09/21 02:19:09;;;;;;;16.20;14.60;;;;;;;7.63;100.00;98233.39;105894;1280;22656;-80
2022/09/21 02:22:09;;;;;;;15.00;13.60;;;;;;;7.64;100.00;98231.17;105778;1280;24246;-80
2022/09/21 02:24:49;;;;;;;15.50;14.10;;;;;;;7.67;100.00;98230.73;105772;1280;23394;-80
2022/09/21 02:27:48;;;;;;;15.30;14.00;;;;;;;7.66;100.00;98232.52;105842;1280;22598;-81
2022/09/21 02:30:24;;;;;;;16.40;15.00;;;;;;;7.65;100.00;98233.91;105751;1280;22570;-80
2022/09/21 02:33:10;;;;;;;17.40;15.90;;;;;;;7.66;100.00;98229.30;105503;1280;23966;-81
2022/09/21 02:35:48;;;;;;;16.90;15.10;;;;;;;7.66;100.00;98227.96;105564;1280;22999;-81
2022/09/21 02:38:41;;;;;;;18.10;16.40;;;;;;;7.66;100.00;98231.61;105748;1280;22694;-81
2022/09/21 02:41:19;;;;;;;16.40;14.90;;;;;;;7.65;100.00;98230.38;105507;1280;25510;-80
2022/09/21 02:43:57;;;;;;;16.00;14.60;;;;;;;7.65;100.00;98231.23;105532;1280;23396;-81
2022/09/21 02:46:39;;;;;;;15.90;14.50;;;;;;;7.66;100.00;98233.43;105505;1280;22655;-80
2022/09/21 02:49:12;;;;;;;17.00;15.30;;;;;;;7.67;100.00;98236.27;105876;1280;24483;-80
2022/09/21 02:51:50;;;;;;;17.00;15.50;;;;;;;7.66;100.00;98236.86;105688;1280;25285;-81
2022/09/21 02:54:25;;;;;;;18.30;16.60;;;;;;;7.68;100.00;98239.21;106047;1280;22699;-81
2022/09/21 02:56:55;;;;;;;16.80;15.30;;;;;;;7.69;100.00;98239.75;105716;1280;24204;-80
2022/09/21 02:59:23;;;;;;;17.40;15.90;;;;;;;7.69;100.00;98237.34;105671;1280;24291;-81
2022/09/21 03:01:51;;;;;;;15.70;14.20;;;;;;;7.69;100.00;98241.20;105904;1280;24289;-80
2022/09/21 03:04:20;;;;;;;17.10;15.60;;;;;;;7.70;100.00;98244.05;105775;1280;25315;-81
2022/09/21 03:06:48;;;;;;;18.20;16.50;;;;;;;7.71;100.00;98248.17;105472;1280;22733;-81
2022/09/21 03:09:16;;;;;;;17.40;15.90;;;;;;;7.70;100.00;98248.45;105510;1280;22587;-81
2022/09/21 03:11:43;;;;;;;17.60;16.00;;;;;;;7.71;100.00;98250.52;105702;1280;25242;-80
2022/09/21 03:14:11;;;;;;;17.00;15.60;;;;;;;7.70;100.00;98246.23;105799;1280;22691;-80
2022/09/21 03:16:39;;;;;;;17.20;15.60;;;;;;;7.72;100.00;98249.02;105803;1280;24237;-85
2022/09/21 03:19:09;;;;;;;19.70;17.60;;;;;;;7.73;100.00;98251.38;105706;1282;25517;-80
2022/09/21 03:21:37;;;;;;;18.10;16.60;;;;;;;7.71;100.00;98253.00;105731;1280;23504;-80
2022/09/21 03:24:11;;;;;;;18.30;16.10;;;;;;;7.72;100.00;98252.35;105587;1280;24633;-80
2022/09/21 03:26:38;;;;;;;17.40;15.90;;;;;;;7.69;100.00;98252.58;105931;1280;24244;-79
2022/09/21 03:29:07;;;;;;;18.10;16.40;;;;;;;7.70;100.00;98249.73;105906;1280;22535;-80
2022/09/21 03:31:35;;;;;;;18.40;16.50;;;;;;;7.70;100.00;98253.74;105768;1280;24389;-80
2022/09/21 03:34:03;;;;;;;17.60;15.90;;;;;;;7.68;100.00;98255.16;105770;1280;23275;-80
2022/09/21 03:36:31;;;;;;;17.70;16.00;;;;;;;7.69;100.00;98259.16;105772;1280;24298;-79
2022/09/21 03:38:59;;;;;;;18.10;16.20;;;;;;;7.70;100.00;98259.80;105776;1280;22568;-80
2022/09/21 03:41:27;;;;;;;19.20;17.40;;;;;;;7.70;100.00;98264.20;105808;1280;22587;-81
2022/09/21 03:43:54;;;;;;;17.40;15.90;;;;;;;7.71;100.00;98263.46;105655;1280;22686;-80
2022/09/21 03:46:23;;;;;;;17.60;15.90;;;;;;;7.72;100.00;98265.83;105757;1280;25100;-80
2022/09/21 03:48:51;;;;;;;17.40;15.80;;;;;;;7.71;100.00;98271.45;105785;1280;24253;-78
2022/09/21 03:51:19;;;;;;;18.20;16.50;;;;;;;7.71;100.00;98273.23;105776;1280;22807;-79
2022/09/21 03:53:47;;;;;;;16.70;15.30;;;;;;;7.73;100.00;98277.90;105650;1282;23132;-80
2022/09/21 03:56:15;;;;;;;18.30;16.70;;;;;;;7.70;100.00;98276.66;105437;1280;22706;-81
2022/09/21 03:58:43;;;;;;;19.50;17.90;;;;;;;7.70;100.00;98275.69;105788;1280;23443;-80
2022/09/21 04:01:11;;;;;;;19.80;17.60;;;;;;;7.66;100.00;98283.80;105785;1280;22692;-80
2022/09/21 04:03:39;;;;;;;20.70;19.10;;;;;;;7.61;100.00;98285.90;106267;1282;22932;-80
2022/09/21 04:06:08;;;;;;;20.00;18.20;;;;;;;7.61;100.00;98286.59;106593;1280;22561;-80
2022/09/21 04:08:37;;;;;;;17.90;16.40;;;;;;;7.58;100.00;98289.70;105671;1281;22591;-80
2022/09/21 04:11:13;;;;;;;18.20;16.40;;;;;;;7.55;100.00;98290.52;105798;1280;25355;-80
2022/09/21 04:13:41;;;;;;;17.10;15.70;;;;;;;7.56;100.00;98291.48;105764;1280;22705;-80
2022/09/21 04:16:10;;;;;;;16.30;15.00;;;;;;;7.54;100.00;98291.43;105790;1280;23208;-80
2022/09/21 04:18:38;;;;;;;18.90;17.30;;;;;;;7.53;100.00;98295.98;105782;1280;23758;-79
2022/09/21 04:21:06;;;;;;;18.50;16.90;;;;;;;7.50;100.00;98303.39;105596;1283;22548;-80
2022/09/21 04:23:34;;;;;;;18.10;16.60;;;;;;;7.46;100.00;98303.86;105706;1281;25433;-81
2022/09/21 04:26:02;;;;;;;18.30;16.80;;;;;;;7.46;100.00;98302.10;105627;1284;22904;-80
2022/09/21 04:28:31;;;;;;;19.90;18.10;;;;;;;7.43;100.00;98303.23;105825;1280;25208;-80
2022/09/21 04:30:59;;;;;;;20.40;18.60;;;;;;;7.42;100.00;98303.60;105803;1280;24342;-81
2022/09/21 04:33:27;;;;;;;20.70;19.00;;;;;;;7.39;100.00;98302.63;106044;1278;22854;-82
2022/09/21 04:35:55;;;;;;;21.50;19.60;;;;;;;7.38;100.00;98304.13;105931;1280;25651;-80
2022/09/21 04:38:23;;;;;;;17.80;16.40;;;;;;;7.36;100.00;98308.27;105910;1280;23760;-81
2022/09/21 04:40:56;;;;;;;19.00;17.40;;;;;;;7.32;100.00;98308.48;105932;1280;22613;-80
2022/09/21 04:43:25;;;;;;;19.20;17.60;;;;;;;7.29;100.00;98309.65;105967;1281;22633;-80
2022/09/21 04:45:52;;;;;;;18.30;16.70;;;;;;;7.31;100.00;98307.08;105927;1280;25407;-80
2022/09/21 04:48:20;;;;;;;20.20;18.40;;;;;;;7.32;100.00;98311.42;105981;1280;22760;-80
2022/09/21 04:50:49;;;;;;;21.30;19.50;;;;;;;7.34;100.00;98309.77;105871;1284;25557;-81
2022/09/21 04:53:17;;;;;;;21.00;19.30;;;;;;;7.34;100.00;98307.02;105737;1280;23103;-80
2022/09/21 04:55:45;;;;;;;21.50;19.70;;;;;;;7.34;100.00;98308.85;105732;1280;25422;-80
2022/09/21 04:58:13;;;;;;;21.00;19.30;;;;;;;7.37;100.00;98307.62;105767;1280;22559;-81
2022/09/21 05:00:41;;;;;;;24.60;22.60;;;;;;;7.42;100.00;98309.61;105569;1284;22691;-81
2022/09/21 05:03:09;;;;;;;29.80;27.30;;;;;;;7.47;100.00;98303.80;105772;1281;25360;-80
2022/09/21 05:05:37;;;;;;;26.20;24.10;;;;;;;7.47;100.00;98307.02;105719;1281;24238;-80
2022/09/21 05:08:04;;;;;;;24.70;22.50;;;;;;;7.45;100.00;98307.73;105731;1281;22694;-80
2022/09/21 05:10:32;;;;;;;24.90;22.80;;;;;;;7.42;100.00;98310.47;105810;1281;22614;-80
2022/09/21 05:13:00;;;;;;;25.60;23.50;;;;;;;7.42;100.00;98314.00;105876;1281;23104;-80
2022/09/21 05:15:28;;;;;;;26.30;23.90;;;;;;;7.41;100.00;98317.21;105891;1281;23423;-80
2022/09/21 05:17:56;;;;;;;26.20;23.90;;;;;;;7.42;100.00;98320.02;105902;1281;25505;-80
2022/09/21 05:20:24;;;;;;;26.30;23.90;;;;;;;7.44;100.00;98319.52;105880;1281;24211;-80
2022/09/21 05:22:52;;;;;;;24.20;22.00;;;;;;;7.45;100.00;98321.02;105865;1282;25423;-80
2022/09/21 05:25:20;;;;;;;26.00;23.50;;;;;;;7.47;100.00;98327.02;105835;1280;24102;-80
2022/09/21 05:27:48;;;;;;;27.00;24.50;;;;;;;7.48;100.00;98327.36;105888;1281;23579;-80
2022/09/21 05:30:16;;;;;;;25.40;23.20;;;;;;;7.47;100.00;98328.31;105852;1281;26608;-81
2022/09/21 05:32:52;;;;;;;24.50;22.30;;;;;;;7.47;100.00;98330.84;105893;1280;24250;-80
2022/09/21 05:35:31;;;;;;;24.60;22.20;;;;;;;7.48;100.00;98332.73;105715;1281;22853;-81
2022/09/21 05:38:20;;;;;;;25.90;23.70;;;;;;;7.48;100.00;98334.11;105869;1280;24260;-81
2022/09/21 05:40:49;;;;;;;24.60;22.40;;;;;;;7.45;100.00;98335.29;105831;1281;24116;-79
2022/09/21 05:43:17;;;;;;;24.40;22.20;;;;;;;7.46;100.00;98339.63;105712;1281;22700;-80
2022/09/21 05:45:51;;;;;;;25.20;22.70;;;;;;;7.46;100.00;98345.21;105897;1280;22677;-82
2022/09/21 05:48:27;;;;;;;24.90;22.80;;;;;;;7.49;100.00;98342.11;105944;1281;23949;-81
2022/09/21 05:51:00;;;;;;;25.90;23.50;;;;;;;7.50;100.00;98342.71;105888;1281;22773;-80
2022/09/21 05:53:31;;;;;;;26.20;23.70;;;;;;;7.53;100.00;98343.50;105828;1280;23115;-81
2022/09/21 05:56:05;;;;;;;26.20;23.70;;;;;;;7.56;100.00;98342.16;107040;1281;25361;-81
2022/09/21 05:58:39;;;;;;;;;;;;;;;7.58;100.00;98346.39;105862;1281;24256;-81
2022/09/21 06:01:29;;;;;;;24.10;21.70;;;;;;;7.56;100.00;98346.77;105601;1281;22544;-81
2022/09/21 06:03:58;;;;;;;25.70;23.60;;;;;;;7.55;100.00;98351.87;105721;1281;25274;-81
2022/09/21 06:06:26;;;;;;;24.50;22.20;;;;;;;7.57;100.00;98349.24;105740;1281;22545;-81
2022/09/21 06:08:54;;;;;;;23.80;21.70;;;;;;;7.61;100.00;98352.98;105819;1280;22702;-81
2022/09/21 06:11:22;;;;;;;23.60;21.30;;;;;;;7.64;100.00;98354.98;105814;1280;24285;-81
2022/09/21 06:13:50;;;;;;;25.40;23.20;;;;;;;7.67;100.00;98354.72;105661;1281;24246;-82
2022/09/21 06:16:18;;;;;;;24.10;22.10;;;;;;;7.67;100.00;98354.56;105834;1280;22540;-80
2022/09/21 06:18:46;;;;;;;23.70;21.50;;;;;;;7.66;100.00;98354.92;105829;1281;24251;-80
2022/09/21 06:21:14;;;;;;;25.40;23.00;;;;;;;7.67;100.00;98353.80;105738;1281;22538;-80
2022/09/21 06:23:42;;;;;;;23.00;21.00;;;;;;;7.70;100.00;98353.59;105590;1281;22691;-80
2022/09/21 06:26:10;;;;;;;22.90;21.00;;;;;;;7.74;100.00;98352.95;105846;1281;25428;-80
2022/09/21 06:28:37;;;;;;;21.80;20.00;;;;;;;7.79;100.00;98349.84;105866;1281;22661;-81
2022/09/21 06:31:05;;;;;;;23.20;20.90;;;;;;;7.81;100.00;98352.03;105868;1281;22634;-80
2022/09/21 06:33:36;;;;;;;22.00;20.10;;;;;;;7.87;100.00;98351.54;105850;1281;22683;-80
2022/09/21 06:36:04;;;;;;;23.40;21.30;;;;;;;7.91;100.00;98356.42;105729;1281;25289;-80
2022/09/21 06:38:34;;;;;;;22.10;20.10;;;;;;;7.88;100.00;98354.55;105693;1281;22563;-80
2022/09/21 06:41:03;;;;;;;21.10;19.10;;;;;;;7.88;100.00;98351.96;105756;1280;25417;-80
2022/09/21 06:43:32;;;;;;;21.90;20.10;;;;;;;7.93;100.00;98348.79;105889;1281;24390;-81
2022/09/21 06:46:01;;;;;;;18.60;17.00;;;;;;;7.98;100.00;98352.71;105873;1280;25242;-81
2022/09/21 06:48:32;;;;;;;20.00;18.20;;;;;;;8.02;100.00;98358.07;105863;1280;26006;-80
2022/09/21 06:51:02;;;;;;;19.30;17.30;;;;;;;8.05;100.00;98358.02;105947;1281;22814;-81
2022/09/21 06:53:32;;;;;;;20.80;19.00;;;;;;;8.06;100.00;98364.02;105542;1283;25235;-81
2022/09/21 06:56:07;;;;;;;19.90;18.20;;;;;;;8.09;100.00;98363.64;105884;1280;25301;-81
2022/09/21 06:58:36;;;;;;;20.50;18.80;;;;;;;8.12;100.00;98367.79;105868;1280;22543;-81
2022/09/21 07:01:10;;;;;;;20.40;18.30;;;;;;;8.13;100.00;98369.92;106058;1280;22553;-81
2022/09/21 07:03:39;;;;;;;21.20;19.30;;;;;;;8.18;100.00;98374.20;105980;1280;22585;-81
2022/09/21 07:06:14;;;;;;;20.60;18.80;;;;;;;8.20;100.00;98374.73;105886;1281;22579;-81
2022/09/21 07:08:43;;;;;;;19.00;17.30;;;;;;;8.19;100.00;98372.49;105645;1280;25482;-81
2022/09/21 07:11:31;;;;;;;21.30;19.40;;;;;;;8.16;100.00;98380.83;105643;1280;24349;-80
2022/09/21 07:13:59;;;;;;;19.00;17.30;;;;;;;8.12;100.00;98384.05;106032;1280;25607;-80
2022/09/21 07:16:27;;;;;;;19.30;17.50;;;;;;;8.13;100.00;98383.89;106060;1280;25293;-81
2022/09/21 07:18:55;;;;;;;19.60;17.30;;;;;;;8.13;100.00;98379.80;106180;1280;22579;-82
2022/09/21 07:21:24;;;;;;;18.20;16.50;;;;;;;8.14;100.00;98382.70;106237;1280;23384;-82
2022/09/21 07:23:52;;;;;;;17.20;15.50;;;;;;;8.15;100.00;98383.52;106034;1280;24411;-81
2022/09/21 07:26:21;;;;;;;18.40;16.70;;;;;;;8.18;100.00;98387.31;105915;1280;22564;-80
2022/09/21 07:28:49;;;;;;;17.30;15.80;;;;;;;8.18;100.00;98389.99;105892;1280;25244;-81
2022/09/21 07:31:17;;;;;;;17.50;16.00;;;;;;;8.18;100.00;98396.65;105887;1280;22605;-81
2022/09/21 07:33:48;;;;;;;21.00;18.80;;;;;;;8.21;100.00;98395.73;106016;1280;22701;-81
2022/09/21 07:36:16;;;;;;;19.60;17.70;;;;;;;8.26;100.00;98395.19;106071;1280;22656;-81
2022/09/21 07:38:44;;;;;;;22.80;20.70;;;;;;;8.28;100.00;98399.32;106038;1280;22710;-81
2022/09/21 07:41:13;;;;;;;19.30;17.40;;;;;;;8.32;100.00;98397.86;106005;1280;24274;-81
2022/09/21 07:43:41;;;;;;;27.50;24.80;;;;;;;8.35;100.00;98395.61;106196;1280;25382;-80
2022/09/21 07:46:11;;;;;;;19.00;16.60;;;;;;;8.38;100.00;98396.30;107007;1280;23966;-81
2022/09/21 07:48:40;;;;;;;16.00;14.30;;;;;;;8.43;100.00;98400.45;106159;1280;22833;-79
2022/09/21 07:51:11;;;;;;;16.20;14.80;;;;;;;8.45;100.00;98399.91;106084;1280;22588;-81
2022/09/21 07:53:42;;;;;;;16.50;15.10;;;;;;;8.48;100.00;98400.44;105900;1280;22547;-81
2022/09/21 07:56:16;;;;;;;17.70;15.80;;;;;;;8.53;100.00;98398.64;105794;1280;25448;-83
2022/09/21 08:01:34;;;;;;;16.80;15.30;;;;;;;8.61;100.00;98400.46;105815;1280;22550;-81
2022/09/21 08:04:04;;;;;;;14.70;13.40;;;;;;;8.66;100.00;98405.86;105929;1280;25252;-81
2022/09/21 08:06:34;;;;;;;15.70;14.00;;;;;;;8.68;100.00;98404.30;105902;1280;22707;-80
2022/09/21 08:09:02;;;;;;;13.70;12.40;;;;;;;8.69;100.00;98409.62;105651;1280;22880;-80
2022/09/21 08:11:32;;;;;;;13.40;12.20;;;;;;;8.69;100.00;98412.63;105821;1280;24287;-77
2022/09/21 08:14:02;;;;;;;12.80;11.60;;;;;;;8.69;100.00;98414.34;105799;1280;24194;-81
2022/09/21 08:16:31;;;;;;;14.20;12.80;;;;;;;8.68;100.00;98418.85;106113;1280;24327;-81
2022/09/21 08:18:59;;;;;;;14.10;12.80;;;;;;;8.67;100.00;98418.28;106129;1280;23776;-83
2022/09/21 08:21:27;;;;;;;14.20;12.80;;;;;;;8.67;100.00;98416.30;106159;1280;23250;-81
2022/09/21 08:23:55;;;;;;;12.90;11.70;;;;;;;8.67;100.00;98419.88;106031;1280;25426;-81
2022/09/21 08:26:23;;;;;;;14.00;12.60;;;;;;;8.66;100.00;98419.61;105617;1280;23237;-81
2022/09/21 08:28:53;;;;;;;12.40;11.20;;;;;;;8.70;100.00;98418.42;106063;1280;23928;-80
2022/09/21 08:31:23;;;;;;;12.40;11.20;;;;;;;8.73;100.00;98423.58;106233;1280;24026;-80
2022/09/21 08:33:53;;;;;;;14.00;11.90;;;;;;;8.76;100.00;98425.45;106261;1280;24289;-80
2022/09/21 08:36:21;;;;;;;13.90;11.10;;;;;;;8.77;100.00;98424.96;106069;1280;25400;-80
2022/09/21 08:38:49;;;;;;;12.80;11.60;;;;;;;8.83;100.00;98427.52;105947;1280;24246;-80
2022/09/21 08:41:23;;;;;;;13.50;12.10;;;;;;;8.92;100.00;98426.58;105547;1280;24364;-81
2022/09/21 08:44:17;;;;;;;13.40;12.20;;;;;;;8.96;100.00;98428.48;105937;1280;23009;-80
2022/09/21 08:46:52;;;;;;;11.00;10.00;;;;;;;8.96;100.00;98429.80;105553;1281;24019;-81
2022/09/21 08:49:24;;;;;;;11.60;10.30;;;;;;;8.96;100.00;98427.52;105869;1280;22673;-81
2022/09/21 08:51:57;;;;;;;11.20;9.20;;;;;;;9.00;100.00;98429.13;106032;1280;24355;-80
2022/09/21 08:54:52;;;;;;;9.90;8.50;;;;;;;9.01;100.00;98428.25;105784;1280;24310;-82
2022/09/21 08:57:24;;;;;;;9.90;8.80;;;;;;;9.02;100.00;98426.42;106036;1280;22853;-80
2022/09/21 08:59:51;;;;;;;8.00;7.30;;;;;;;9.02;100.00;98429.22;106029;1280;25293;-80
2022/09/21 09:02:57;;;;;;;8.20;7.30;;;;;;;9.00;100.00;98427.35;106213;1280;24401;-81
2022/09/21 09:06:09;;;;;;;8.70;7.80;;;;;;;8.94;100.00;98427.91;106032;1280;22894;-81
2022/09/21 09:08:37;;;;;;;9.70;8.80;;;;;;;8.90;100.00;98427.71;105943;1280;22543;-81
2022/09/21 09:12:00;;;;;;;11.40;9.30;;;;;;;8.90;100.00;98428.63;106109;1280;24601;-80
2022/09/21 09:14:45;;;;;;;10.00;9.10;;;;;;;8.86;100.00;98432.52;104802;1288;22582;-81
2022/09/21 09:17:45;;;;;;;9.50;8.50;;;;;;;8.83;100.00;98431.40;105132;1287;23402;-80
2022/09/21 09:20:30;;;;;;;10.00;9.00;;;;;;;8.80;100.00;98433.28;105222;1287;23573;-80
2022/09/21 09:23:12;;;;;;;8.50;7.70;;;;;;;8.81;100.00;98435.59;105235;1287;23636;-81
2022/09/21 09:25:42;;;;;;;9.50;8.50;;;;;;;8.79;100.00;98434.23;105230;1287;22537;-79
2022/09/21 09:28:27;;;;;;;8.40;7.60;;;;;;;8.81;100.00;98434.89;104960;1287;24298;-82
2022/09/21 09:31:00;;;;;;;8.70;7.90;;;;;;;8.83;100.00;98432.73;105299;1286;22678;-81
2022/09/21 09:33:42;;;;;;;10.90;7.60;;;;;;;8.86;100.00;98433.80;105209;1287;22778;-80
2022/09/21 09:36:12;;;;;;;8.50;7.50;;;;;;;8.89;100.00;98429.87;106377;1287;24258;-81
2022/09/21 09:39:04;;;;;;;8.60;7.70;;;;;;;8.93;100.00;98430.02;105297;1287;24474;-80
2022/09/21 09:41:57;;;;;;;8.40;7.60;;;;;;;8.90;100.00;98430.17;105200;1287;22536;-81
2022/09/21 09:44:50;;;;;;;7.40;6.70;;;;;;;8.92;100.00;98427.97;105264;1287;22890;-81
2022/09/21 09:47:40;;;;;;;8.90;8.00;;;;;;;8.96;100.00;98430.11;105232;1287;22583;-80
2022/09/21 09:50:12;;;;;;;10.70;8.20;;;;;;;8.99;100.00;98429.83;105381;1281;22654;-81
2022/09/21 09:52:40;;;;;;;8.50;7.30;;;;;;;8.98;100.00;98427.48;106068;1280;22652;-82
2022/09/21 09:55:19;;;;;;;8.20;7.30;;;;;;;9.02;100.00;98430.40;105924;1280;132893;-81
2022/09/21 09:57:48;;;;;;;7.40;6.70;;;;;;;9.09;100.00;98429.78;105718;1280;24345;-80
2022/09/21 10:00:19;;;;;;;7.50;6.80;;;;;;;9.18;100.00;98428.61;105934;1280;22546;-80
2022/09/21 10:02:55;;;;;;;7.90;7.10;;;;;;;9.25;100.00;98423.30;105861;1280;22570;-82
2022/09/21 10:05:30;;;;;;;9.40;7.30;;;;;;;9.33;100.00;98424.89;105910;1280;22550;-80
2022/09/21 10:07:59;;;;;;;7.80;7.00;;;;;;;9.40;100.00;98428.45;105891;1280;25293;-81
2022/09/21 10:10:52;;;;;;;6.70;5.90;;;;;;;9.41;100.00;98428.70;105924;1280;22637;-81
2022/09/21 10:13:20;;;;;;;8.40;6.30;;;;;;;9.40;100.00;98424.52;105551;1283;22901;-83
2022/09/21 10:15:52;;;;;;;8.90;5.90;;;;;;;9.47;100.00;98426.58;105542;1283;23433;-82
2022/09/21 10:18:25;;;;;;;8.10;6.20;;;;;;;9.58;100.00;98429.53;105558;1283;22767;-81
2022/09/21 10:21:00;;;;;;;7.30;6.50;;;;;;;9.69;100.00;98429.61;105497;1283;22555;-82
2022/09/21 10:23:30;;;;;;;9.70;6.30;;;;;;;9.78;100.00;98427.88;105613;1283;23236;-81
2022/09/21 10:26:07;;;;;;;7.20;6.50;;;;;;;9.80;100.00;98427.50;105465;1283;23039;-81
2022/09/21 10:28:36;;;;;;;10.10;8.20;;;;;;;9.93;100.00;98424.33;105620;1283;22706;-80
2022/09/21 10:31:30;;;;;;;7.60;6.80;;;;;;;10.03;100.00;98421.39;105492;1283;24296;-81
2022/09/21 10:34:13;;;;;;;8.70;7.20;;;;;;;10.13;100.00;98423.67;105442;1283;22668;-80
2022/09/21 10:36:50;;;;;;;9.10;6.50;;;;;;;10.18;100.00;98423.25;105432;1283;25307;-80
2022/09/21 10:39:25;;;;;;;9.90;6.70;;;;;;;10.19;100.00;98423.41;105501;1283;22658;-82
2022/09/21 10:42:01;;;;;;;10.70;7.20;;;;;;;10.19;100.00;98425.45;105474;1283;22591;-80
2022/09/21 10:44:38;;;;;;;8.00;7.00;;;;;;;10.19;100.00;98428.52;105689;1280;23516;-82
2022/09/21 10:47:37;;;;;;;10.10;7.70;;;;;;;10.18;100.00;98422.77;106142;1280;22558;-82
2022/09/21 10:50:24;;;;;;;8.90;6.30;;;;;;;10.22;100.00;98426.60;105814;1282;22723;-87
2022/09/21 10:53:10;;;;;;;8.70;6.40;;;;;;;10.23;100.00;98417.66;105935;1280;22566;-81
2022/09/21 10:55:46;;;;;;;9.30;6.60;;;;;;;10.18;100.00;98416.89;105898;1280;25149;-82
2022/09/21 10:58:35;;;;;;;8.30;6.40;;;;;;;10.19;100.00;98419.27;105545;1280;22538;-80
2022/09/21 11:01:24;;;;;;;7.50;6.40;;;;;;;10.13;100.00;98423.99;105598;1280;22560;-80
2022/09/21 11:04:05;;;;;;;7.90;6.20;;;;;;;10.06;100.00;98420.08;106011;1280;22629;-81
2022/09/21 11:06:45;;;;;;;8.20;7.40;;;;;;;10.04;100.00;98419.88;106161;1280;25326;-82
2022/09/21 11:09:27;;;;;;;8.20;6.70;;;;;;;10.01;100.00;98418.55;106114;1280;25240;-82
2022/09/21 11:11:58;;;;;;;7.60;6.90;;;;;;;10.01;100.00;98420.05;106160;1280;22691;-84
2022/09/21 11:14:26;;;;;;;11.40;7.00;;;;;;;10.06;100.00;98418.35;106144;1280;24326;-82
2022/09/21 11:17:06;;;;;;;9.70;8.20;;;;;;;10.17;100.00;98416.85;106062;1280;25303;-84
2022/09/21 11:19:51;;;;;;;10.80;8.20;;;;;;;10.28;100.00;98418.34;106041;1280;24319;-81
2022/09/21 11:22:45;;;;;;;;;;;;;;;10.38;100.00;98420.14;106019;1280;22677;-82
2022/09/21 11:25:39;;;;;;;10.20;8.50;;;;;;;10.47;100.00;98416.33;107123;1280;25320;-85
2022/09/21 11:28:29;;;;;;;10.20;8.90;;;;;;;10.53;100.00;98418.44;105173;1287;22558;-82
2022/09/21 11:31:34;;;;;;;10.20;9.20;;;;;;;10.63;100.00;98415.46;105251;1287;22544;-81
2022/09/21 11:34:52;;;;;;;11.70;9.70;;;;;;;10.74;100.00;98416.14;105124;1287;22945;-81
2022/09/21 11:37:38;;;;;;;17.50;14.60;;;;;;;10.93;100.00;98416.47;104890;1288;22902;-81
2022/09/21 11:40:06;;;;;;;11.80;9.70;;;;;;;11.38;100.00;98405.96;105259;1287;23976;-80
2022/09/21 11:42:52;;;;;;;11.70;9.70;;;;;;;11.68;100.00;98397.96;105189;1287;23357;-81
2022/09/21 11:45:50;;;;;;;13.00;9.90;;;;;;;11.99;99.99;98400.65;105057;1287;25259;-82
2022/09/21 11:48:20;;;;;;;13.60;10.70;;;;;;;12.23;99.21;98393.65;105228;1287;22700;-80
2022/09/21 11:51:12;;;;;;;11.90;9.60;;;;;;;12.12;96.55;98392.54;105246;1287;23381;-83